sensor_id;sensor_type;location;lat;lon;timestamp;temperature;humidity
12384;DHT22;6256;63.808;20.336;2023-03-26T00:00:45;-14.30;99.90
12384;DHT22;6256;63.808;20.336;2023-03-26T00:03:13;-14.30;99.90
12384;DHT22;6256;63.808;20.336;2023-03-26T00:05:41;-14.30;99.90
12384;DHT22;6256;63.808;20.336;2023-03-26T00:08:07;-14.30;99.90
12384;DHT22;6256;63.808;20.336;2023-03-26T00:10:35;-14.30;99.90
12384;DHT22;6256;63.808;20.336;2023-03-26T00:13:02;-14.30;99.90
12384;DHT22;6256;63.808;20.336;2023-03-26T00:15:28;-14.40;99.90
12384;DHT22;6256;63.808;20.336;2023-03-26T00:17:53;-14.40;99.90
12384;DHT22;6256;63.808;20.336;2023-03-26T00:20:21;-14.40;99.90
12384;DHT22;6256;63.808;20.336;2023-03-26T00:22:47;-14.40;99.90
12384;DHT22;6256;63.808;20.336;2023-03-26T00:25:13;-14.40;99.90
12384;DHT22;6256;63.808;20.336;2023-03-26T00:27:39;-14.40;99.90
12384;DHT22;6256;63.808;20.336;2023-03-26T00:30:05;-14.50;99.90
12384;DHT22;6256;63.808;20.336;2023-03-26T00:32:31;-14.50;99.90
12384;DHT22;6256;63.808;20.336;2023-03-26T00:34:58;-14.50;99.90
12384;DHT22;6256;63.808;20.336;2023-03-26T00:37:25;-14.50;99.90
12384;DHT22;6256;63.808;20.336;2023-03-26T00:39:55;-14.50;99.90
12384;DHT22;6256;63.808;20.336;2023-03-26T00:42:27;-14.50;99.90
12384;DHT22;6256;63.808;20.336;2023-03-26T00:44:53;-14.50;99.90
12384;DHT22;6256;63.808;20.336;2023-03-26T00:47:27;-14.40;99.90
12384;DHT22;6256;63.808;20.336;2023-03-26T00:49:53;-14.40;99.90
12384;DHT22;6256;63.808;20.336;2023-03-26T00:52:20;-14.40;99.90
12384;DHT22;6256;63.808;20.336;2023-03-26T00:54:47;-14.40;99.90
12384;DHT22;6256;63.808;20.336;2023-03-26T00:57:15;-14.40;99.90
12384;DHT22;6256;63.808;20.336;2023-03-26T00:59:40;-14.40;99.90
12384;DHT22;6256;63.808;20.336;2023-03-26T01:02:11;-14.40;99.90
12384;DHT22;6256;63.808;20.336;2023-03-26T01:04:37;-14.40;99.90
12384;DHT22;6256;63.808;20.336;2023-03-26T01:07:09;-14.40;99.90
12384;DHT22;6256;63.808;20.336;2023-03-26T01:09:38;-14.40;99.90
12384;DHT22;6256;63.808;20.336;2023-03-26T01:12:09;-14.30;99.90
12384;DHT22;6256;63.808;20.336;2023-03-26T01:14:36;-14.30;99.90
12384;DHT22;6256;63.808;20.336;2023-03-26T01:17:04;-14.30;99.90
12384;DHT22;6256;63.808;20.336;2023-03-26T01:19:42;-14.30;99.90
12384;DHT22;6256;63.808;20.336;2023-03-26T01:22:13;-14.30;99.90
12384;DHT22;6256;63.808;20.336;2023-03-26T01:24:40;-14.30;99.90
12384;DHT22;6256;63.808;20.336;2023-03-26T01:27:33;-14.30;99.90
12384;DHT22;6256;63.808;20.336;2023-03-26T01:33:12;-14.30;99.90
12384;DHT22;6256;63.808;20.336;2023-03-26T01:35:59;-14.20;99.90
12384;DHT22;6256;63.808;20.336;2023-03-26T01:38:48;-14.10;99.90
12384;DHT22;6256;63.808;20.336;2023-03-26T01:41:29;-14.20;99.90
12384;DHT22;6256;63.808;20.336;2023-03-26T01:44:26;-14.20;99.90
12384;DHT22;6256;63.808;20.336;2023-03-26T01:46:55;-14.20;99.90
12384;DHT22;6256;63.808;20.336;2023-03-26T01:49:26;-14.30;99.90
12384;DHT22;6256;63.808;20.336;2023-03-26T01:51:53;-14.30;99.90
12384;DHT22;6256;63.808;20.336;2023-03-26T01:54:26;-14.30;99.90
12384;DHT22;6256;63.808;20.336;2023-03-26T02:02:16;-14.20;99.90
12384;DHT22;6256;63.808;20.336;2023-03-26T02:04:58;-14.20;99.90
12384;DHT22;6256;63.808;20.336;2023-03-26T02:07:48;-14.20;99.90
12384;DHT22;6256;63.808;20.336;2023-03-26T02:10:23;-14.20;99.90
12384;DHT22;6256;63.808;20.336;2023-03-26T02:12:51;-14.20;99.90
12384;DHT22;6256;63.808;20.336;2023-03-26T02:15:17;-14.20;99.90
12384;DHT22;6256;63.808;20.336;2023-03-26T02:17:43;-14.20;99.90
12384;DHT22;6256;63.808;20.336;2023-03-26T02:20:10;-14.20;99.90
12384;DHT22;6256;63.808;20.336;2023-03-26T02:22:37;-14.20;99.90
12384;DHT22;6256;63.808;20.336;2023-03-26T02:25:13;-14.20;99.90
12384;DHT22;6256;63.808;20.336;2023-03-26T02:27:41;-14.10;99.90
12384;DHT22;6256;63.808;20.336;2023-03-26T02:30:10;-14.10;99.90
12384;DHT22;6256;63.808;20.336;2023-03-26T02:32:36;-14.10;99.90
12384;DHT22;6256;63.808;20.336;2023-03-26T02:35:03;-14.10;99.90
12384;DHT22;6256;63.808;20.336;2023-03-26T02:37:30;-14.00;99.90
12384;DHT22;6256;63.808;20.336;2023-03-26T02:39:59;-14.00;99.90
12384;DHT22;6256;63.808;20.336;2023-03-26T02:42:25;-13.90;99.90
12384;DHT22;6256;63.808;20.336;2023-03-26T02:44:50;-14.00;99.90
12384;DHT22;6256;63.808;20.336;2023-03-26T02:47:16;-14.00;99.90
12384;DHT22;6256;63.808;20.336;2023-03-26T02:49:42;-14.00;99.90
12384;DHT22;6256;63.808;20.336;2023-03-26T02:52:08;-14.00;99.90
12384;DHT22;6256;63.808;20.336;2023-03-26T02:54:34;-14.00;99.90
12384;DHT22;6256;63.808;20.336;2023-03-26T02:57:00;-14.00;99.90
12384;DHT22;6256;63.808;20.336;2023-03-26T02:59:25;-14.00;99.90
12384;DHT22;6256;63.808;20.336;2023-03-26T03:01:51;-14.00;99.90
12384;DHT22;6256;63.808;20.336;2023-03-26T03:04:17;-13.90;99.90
12384;DHT22;6256;63.808;20.336;2023-03-26T03:06:43;-13.90;99.90
12384;DHT22;6256;63.808;20.336;2023-03-26T03:09:10;-13.90;99.90
12384;DHT22;6256;63.808;20.336;2023-03-26T03:11:38;-13.90;99.90
12384;DHT22;6256;63.808;20.336;2023-03-26T03:14:04;-13.90;99.90
12384;DHT22;6256;63.808;20.336;2023-03-26T03:16:30;-13.90;99.90
12384;DHT22;6256;63.808;20.336;2023-03-26T03:18:56;-14.00;99.90
12384;DHT22;6256;63.808;20.336;2023-03-26T03:21:23;-13.90;99.90
12384;DHT22;6256;63.808;20.336;2023-03-26T03:23:49;-14.00;99.90
12384;DHT22;6256;63.808;20.336;2023-03-26T03:26:18;-14.00;99.90
12384;DHT22;6256;63.808;20.336;2023-03-26T03:28:47;-14.00;99.90
12384;DHT22;6256;63.808;20.336;2023-03-26T03:31:14;-14.10;99.90
12384;DHT22;6256;63.808;20.336;2023-03-26T03:33:40;-14.10;99.90
12384;DHT22;6256;63.808;20.336;2023-03-26T03:36:09;-14.00;99.90
12384;DHT22;6256;63.808;20.336;2023-03-26T03:38:36;-14.00;99.90
12384;DHT22;6256;63.808;20.336;2023-03-26T03:41:02;-14.10;99.90
12384;DHT22;6256;63.808;20.336;2023-03-26T03:43:28;-13.90;99.90
12384;DHT22;6256;63.808;20.336;2023-03-26T03:45:54;-13.80;99.90
12384;DHT22;6256;63.808;20.336;2023-03-26T03:48:20;-13.70;99.90
12384;DHT22;6256;63.808;20.336;2023-03-26T03:50:45;-13.60;99.90
12384;DHT22;6256;63.808;20.336;2023-03-26T03:53:11;-13.40;99.90
12384;DHT22;6256;63.808;20.336;2023-03-26T03:55:43;-13.30;99.90
12384;DHT22;6256;63.808;20.336;2023-03-26T03:58:18;-13.20;99.90
12384;DHT22;6256;63.808;20.336;2023-03-26T04:00:47;-13.10;99.90
12384;DHT22;6256;63.808;20.336;2023-03-26T04:03:13;-13.10;99.90
12384;DHT22;6256;63.808;20.336;2023-03-26T04:05:39;-13.00;99.90
12384;DHT22;6256;63.808;20.336;2023-03-26T04:08:05;-13.00;99.90
12384;DHT22;6256;63.808;20.336;2023-03-26T04:10:31;-12.90;99.90
12384;DHT22;6256;63.808;20.336;2023-03-26T04:12:56;-12.90;99.90
12384;DHT22;6256;63.808;20.336;2023-03-26T04:15:22;-12.90;99.90
12384;DHT22;6256;63.808;20.336;2023-03-26T04:17:48;-12.90;99.90
12384;DHT22;6256;63.808;20.336;2023-03-26T04:20:16;-12.90;99.90
12384;DHT22;6256;63.808;20.336;2023-03-26T04:22:44;-12.80;99.90
12384;DHT22;6256;63.808;20.336;2023-03-26T04:25:11;-12.90;99.90
12384;DHT22;6256;63.808;20.336;2023-03-26T04:27:37;-12.90;99.90
12384;DHT22;6256;63.808;20.336;2023-03-26T04:30:05;-12.90;99.90
12384;DHT22;6256;63.808;20.336;2023-03-26T04:32:32;-12.90;99.90
12384;DHT22;6256;63.808;20.336;2023-03-26T04:35:03;-12.80;99.90
12384;DHT22;6256;63.808;20.336;2023-03-26T04:37:35;-12.80;99.90
12384;DHT22;6256;63.808;20.336;2023-03-26T04:40:05;-12.80;99.90
12384;DHT22;6256;63.808;20.336;2023-03-26T04:42:34;-12.70;99.90
12384;DHT22;6256;63.808;20.336;2023-03-26T04:44:59;-12.70;99.90
12384;DHT22;6256;63.808;20.336;2023-03-26T04:47:27;-12.70;99.90
12384;DHT22;6256;63.808;20.336;2023-03-26T04:49:53;-12.60;99.90
12384;DHT22;6256;63.808;20.336;2023-03-26T04:52:19;-12.60;99.90
12384;DHT22;6256;63.808;20.336;2023-03-26T04:54:45;-12.60;99.90
12384;DHT22;6256;63.808;20.336;2023-03-26T04:57:17;-12.60;99.90
12384;DHT22;6256;63.808;20.336;2023-03-26T04:59:45;-12.50;99.90
12384;DHT22;6256;63.808;20.336;2023-03-26T05:02:12;-12.50;99.90
12384;DHT22;6256;63.808;20.336;2023-03-26T05:04:38;-12.50;99.90
12384;DHT22;6256;63.808;20.336;2023-03-26T05:07:04;-12.40;99.90
12384;DHT22;6256;63.808;20.336;2023-03-26T05:09:30;-12.40;99.90
12384;DHT22;6256;63.808;20.336;2023-03-26T05:11:56;-12.30;99.90
12384;DHT22;6256;63.808;20.336;2023-03-26T05:14:22;-12.30;99.90
12384;DHT22;6256;63.808;20.336;2023-03-26T05:16:49;-12.30;99.90
12384;DHT22;6256;63.808;20.336;2023-03-26T05:19:17;-12.20;99.90
12384;DHT22;6256;63.808;20.336;2023-03-26T05:21:43;-12.20;99.90
12384;DHT22;6256;63.808;20.336;2023-03-26T05:24:09;-12.20;99.90
12384;DHT22;6256;63.808;20.336;2023-03-26T05:26:35;-12.10;99.90
12384;DHT22;6256;63.808;20.336;2023-03-26T05:29:01;-12.10;99.90
12384;DHT22;6256;63.808;20.336;2023-03-26T05:31:27;-12.00;99.90
12384;DHT22;6256;63.808;20.336;2023-03-26T05:33:56;-12.00;99.90
12384;DHT22;6256;63.808;20.336;2023-03-26T05:36:22;-11.90;99.90
12384;DHT22;6256;63.808;20.336;2023-03-26T05:38:48;-11.90;99.90
12384;DHT22;6256;63.808;20.336;2023-03-26T05:41:15;-11.80;99.90
12384;DHT22;6256;63.808;20.336;2023-03-26T05:43:41;-11.80;99.90
12384;DHT22;6256;63.808;20.336;2023-03-26T05:46:08;-11.70;99.90
12384;DHT22;6256;63.808;20.336;2023-03-26T05:48:34;-11.60;99.90
12384;DHT22;6256;63.808;20.336;2023-03-26T05:50:59;-11.50;99.90
12384;DHT22;6256;63.808;20.336;2023-03-26T05:53:26;-11.40;99.90
12384;DHT22;6256;63.808;20.336;2023-03-26T05:55:52;-11.30;99.90
12384;DHT22;6256;63.808;20.336;2023-03-26T05:58:30;-11.30;99.90
12384;DHT22;6256;63.808;20.336;2023-03-26T06:01:14;-11.20;99.90
12384;DHT22;6256;63.808;20.336;2023-03-26T06:03:44;-11.10;99.90
12384;DHT22;6256;63.808;20.336;2023-03-26T06:06:15;-11.00;99.90
12384;DHT22;6256;63.808;20.336;2023-03-26T06:08:51;-10.90;99.90
12384;DHT22;6256;63.808;20.336;2023-03-26T06:11:18;-10.80;99.90
12384;DHT22;6256;63.808;20.336;2023-03-26T06:13:45;-10.70;99.90
12384;DHT22;6256;63.808;20.336;2023-03-26T06:16:12;-10.70;99.90
12384;DHT22;6256;63.808;20.336;2023-03-26T06:18:38;-10.60;99.90
12384;DHT22;6256;63.808;20.336;2023-03-26T06:21:05;-10.50;99.90
12384;DHT22;6256;63.808;20.336;2023-03-26T06:23:31;-10.40;99.90
12384;DHT22;6256;63.808;20.336;2023-03-26T06:25:58;-10.30;99.90
12384;DHT22;6256;63.808;20.336;2023-03-26T06:28:24;-10.30;99.90
12384;DHT22;6256;63.808;20.336;2023-03-26T06:30:50;-10.20;99.90
12384;DHT22;6256;63.808;20.336;2023-03-26T06:33:16;-10.00;99.90
12384;DHT22;6256;63.808;20.336;2023-03-26T06:35:43;-10.00;99.90
12384;DHT22;6256;63.808;20.336;2023-03-26T06:38:10;-9.80;99.90
12384;DHT22;6256;63.808;20.336;2023-03-26T06:40:35;-9.70;99.90
12384;DHT22;6256;63.808;20.336;2023-03-26T06:43:01;-9.60;99.90
12384;DHT22;6256;63.808;20.336;2023-03-26T06:45:28;-9.60;99.90
12384;DHT22;6256;63.808;20.336;2023-03-26T06:47:53;-9.50;99.90
12384;DHT22;6256;63.808;20.336;2023-03-26T06:50:19;-9.40;99.90
12384;DHT22;6256;63.808;20.336;2023-03-26T06:52:45;-9.30;99.90
12384;DHT22;6256;63.808;20.336;2023-03-26T06:55:11;-9.20;99.90
12384;DHT22;6256;63.808;20.336;2023-03-26T06:57:37;-9.10;99.90
12384;DHT22;6256;63.808;20.336;2023-03-26T07:00:05;-9.00;99.90
12384;DHT22;6256;63.808;20.336;2023-03-26T07:02:31;-8.90;99.90
12384;DHT22;6256;63.808;20.336;2023-03-26T07:04:57;-8.70;99.90
12384;DHT22;6256;63.808;20.336;2023-03-26T07:07:23;-8.60;99.90
12384;DHT22;6256;63.808;20.336;2023-03-26T07:09:50;-8.60;99.90
12384;DHT22;6256;63.808;20.336;2023-03-26T07:12:15;-8.50;99.90
12384;DHT22;6256;63.808;20.336;2023-03-26T07:14:41;-8.40;99.90
12384;DHT22;6256;63.808;20.336;2023-03-26T07:17:07;-8.30;99.90
12384;DHT22;6256;63.808;20.336;2023-03-26T07:19:33;-8.20;99.90
12384;DHT22;6256;63.808;20.336;2023-03-26T07:21:59;-8.20;99.90
12384;DHT22;6256;63.808;20.336;2023-03-26T07:24:25;-8.10;99.90
12384;DHT22;6256;63.808;20.336;2023-03-26T07:29:32;-7.90;99.90
12384;DHT22;6256;63.808;20.336;2023-03-26T07:32:02;-7.70;99.90
12384;DHT22;6256;63.808;20.336;2023-03-26T07:34:49;-7.60;99.90
12384;DHT22;6256;63.808;20.336;2023-03-26T07:40:07;-7.40;99.90
12384;DHT22;6256;63.808;20.336;2023-03-26T07:45:41;-7.20;99.90
12384;DHT22;6256;63.808;20.336;2023-03-26T07:48:38;-7.10;99.90
12384;DHT22;6256;63.808;20.336;2023-03-26T07:51:05;-7.00;99.90
12384;DHT22;6256;63.808;20.336;2023-03-26T07:53:35;-6.90;99.90
12384;DHT22;6256;63.808;20.336;2023-03-26T07:56:15;-6.80;99.90
12384;DHT22;6256;63.808;20.336;2023-03-26T07:59:50;-6.70;99.90
12384;DHT22;6256;63.808;20.336;2023-03-26T08:13:14;-6.00;99.90
12384;DHT22;6256;63.808;20.336;2023-03-26T08:32:03;-5.20;99.90
12384;DHT22;6256;63.808;20.336;2023-03-26T08:34:29;-5.10;99.90
12384;DHT22;6256;63.808;20.336;2023-03-26T08:36:55;-5.00;99.90
12384;DHT22;6256;63.808;20.336;2023-03-26T08:39:20;-4.90;99.90
12384;DHT22;6256;63.808;20.336;2023-03-26T08:47:29;-4.50;99.90
12384;DHT22;6256;63.808;20.336;2023-03-26T09:04:02;-3.80;99.90
12384;DHT22;6256;63.808;20.336;2023-03-26T09:23:36;-2.90;99.90
12384;DHT22;6256;63.808;20.336;2023-03-26T09:26:26;-2.70;99.90
12384;DHT22;6256;63.808;20.336;2023-03-26T09:29:20;-2.50;99.90
12384;DHT22;6256;63.808;20.336;2023-03-26T09:35:32;-2.40;99.90
12384;DHT22;6256;63.808;20.336;2023-03-26T09:40:18;-2.40;99.90
12384;DHT22;6256;63.808;20.336;2023-03-26T09:46:02;-2.00;99.90
12384;DHT22;6256;63.808;20.336;2023-03-26T09:59:23;-1.30;99.90
12384;DHT22;6256;63.808;20.336;2023-03-26T10:13:37;-0.60;99.80
12384;DHT22;6256;63.808;20.336;2023-03-26T10:16:14;-0.40;99.80
12384;DHT22;6256;63.808;20.336;2023-03-26T10:19:09;-0.30;99.20
12384;DHT22;6256;63.808;20.336;2023-03-26T10:21:44;-0.30;98.60
12384;DHT22;6256;63.808;20.336;2023-03-26T10:27:33;-0.30;99.10
12384;DHT22;6256;63.808;20.336;2023-03-26T10:30:22;-0.20;99.60
12384;DHT22;6256;63.808;20.336;2023-03-26T10:33:29;-0.10;99.10
12384;DHT22;6256;63.808;20.336;2023-03-26T10:41:40;0.20;98.90
12384;DHT22;6256;63.808;20.336;2023-03-26T10:44:48;0.40;99.20
12384;DHT22;6256;63.808;20.336;2023-03-26T10:55:39;1.90;97.20
12384;DHT22;6256;63.808;20.336;2023-03-26T10:58:23;1.80;95.20
12384;DHT22;6256;63.808;20.336;2023-03-26T11:01:00;1.80;94.80
12384;DHT22;6256;63.808;20.336;2023-03-26T11:03:44;1.60;95.10
12384;DHT22;6256;63.808;20.336;2023-03-26T11:06:30;1.70;95.30
12384;DHT22;6256;63.808;20.336;2023-03-26T11:09:25;1.90;94.30
12384;DHT22;6256;63.808;20.336;2023-03-26T11:14:46;2.10;93.50
12384;DHT22;6256;63.808;20.336;2023-03-26T11:20:37;2.80;93.80
12384;DHT22;6256;63.808;20.336;2023-03-26T11:26:13;2.60;92.30
12384;DHT22;6256;63.808;20.336;2023-03-26T11:29:11;2.50;91.60
12384;DHT22;6256;63.808;20.336;2023-03-26T11:31:51;2.70;92.00
12384;DHT22;6256;63.808;20.336;2023-03-26T11:34:24;3.00;91.70
12384;DHT22;6256;63.808;20.336;2023-03-26T11:36:53;2.90;91.80
12384;DHT22;6256;63.808;20.336;2023-03-26T11:39:27;2.60;91.70
12384;DHT22;6256;63.808;20.336;2023-03-26T11:42:12;2.80;91.30
12384;DHT22;6256;63.808;20.336;2023-03-26T11:44:47;2.60;91.00
12384;DHT22;6256;63.808;20.336;2023-03-26T11:47:19;2.80;91.50
12384;DHT22;6256;63.808;20.336;2023-03-26T11:49:46;2.90;91.70
12384;DHT22;6256;63.808;20.336;2023-03-26T11:52:14;2.90;90.10
12384;DHT22;6256;63.808;20.336;2023-03-26T11:54:40;2.90;90.70
12384;DHT22;6256;63.808;20.336;2023-03-26T11:57:11;3.20;90.90
12384;DHT22;6256;63.808;20.336;2023-03-26T11:59:45;3.10;90.80
12384;DHT22;6256;63.808;20.336;2023-03-26T12:04:43;3.20;90.70
12384;DHT22;6256;63.808;20.336;2023-03-26T12:07:21;3.30;91.10
12384;DHT22;6256;63.808;20.336;2023-03-26T12:09:52;3.10;90.40
12384;DHT22;6256;63.808;20.336;2023-03-26T12:12:18;3.10;90.60
12384;DHT22;6256;63.808;20.336;2023-03-26T12:14:45;3.00;90.30
12384;DHT22;6256;63.808;20.336;2023-03-26T12:17:14;2.90;90.30
12384;DHT22;6256;63.808;20.336;2023-03-26T12:19:49;2.40;90.40
12384;DHT22;6256;63.808;20.336;2023-03-26T12:25:14;1.90;91.10
12384;DHT22;6256;63.808;20.336;2023-03-26T12:28:18;1.60;91.90
12384;DHT22;6256;63.808;20.336;2023-03-26T12:30:39;1.60;92.40
12384;DHT22;6256;63.808;20.336;2023-03-26T12:33:26;1.50;91.80
12384;DHT22;6256;63.808;20.336;2023-03-26T12:35:53;1.80;92.50
12384;DHT22;6256;63.808;20.336;2023-03-26T12:43:55;1.80;91.70
12384;DHT22;6256;63.808;20.336;2023-03-26T12:46:32;1.70;91.70
12384;DHT22;6256;63.808;20.336;2023-03-26T12:49:03;1.50;91.00
12384;DHT22;6256;63.808;20.336;2023-03-26T12:51:47;1.30;90.90
12384;DHT22;6256;63.808;20.336;2023-03-26T12:57:31;1.20;90.90
12384;DHT22;6256;63.808;20.336;2023-03-26T13:00:13;1.30;90.50
12384;DHT22;6256;63.808;20.336;2023-03-26T13:08:19;1.40;91.00
12384;DHT22;6256;63.808;20.336;2023-03-26T13:10:54;1.70;90.70
12384;DHT22;6256;63.808;20.336;2023-03-26T13:16:15;2.70;88.60
12384;DHT22;6256;63.808;20.336;2023-03-26T13:19:11;3.10;86.50
12384;DHT22;6256;63.808;20.336;2023-03-26T13:37:58;4.30;79.90
12384;DHT22;6256;63.808;20.336;2023-03-26T13:48:14;4.70;76.80
12384;DHT22;6256;63.808;20.336;2023-03-26T13:50:45;4.70;77.30
12384;DHT22;6256;63.808;20.336;2023-03-26T13:53:17;4.80;76.30
12384;DHT22;6256;63.808;20.336;2023-03-26T13:55:52;4.70;75.50
12384;DHT22;6256;63.808;20.336;2023-03-26T13:58:24;4.50;74.30
12384;DHT22;6256;63.808;20.336;2023-03-26T14:01:15;4.00;73.80
12384;DHT22;6256;63.808;20.336;2023-03-26T14:07:13;2.80;75.70
12384;DHT22;6256;63.808;20.336;2023-03-26T14:09:40;1.90;75.40
12384;DHT22;6256;63.808;20.336;2023-03-26T14:15:16;1.00;78.00
12384;DHT22;6256;63.808;20.336;2023-03-26T14:28:47;0.60;80.70
12384;DHT22;6256;63.808;20.336;2023-03-26T14:50:40;-0.60;81.10
12384;DHT22;6256;63.808;20.336;2023-03-26T14:53:35;-0.80;80.80
12384;DHT22;6256;63.808;20.336;2023-03-26T15:02:50;-1.30;81.80
12384;DHT22;6256;63.808;20.336;2023-03-26T15:05:46;-1.40;83.20
12384;DHT22;6256;63.808;20.336;2023-03-26T15:11:50;-1.60;83.40
12384;DHT22;6256;63.808;20.336;2023-03-26T15:14:41;-1.80;82.40
12384;DHT22;6256;63.808;20.336;2023-03-26T15:34:12;-2.20;81.80
12384;DHT22;6256;63.808;20.336;2023-03-26T15:45:36;-2.30;82.60
12384;DHT22;6256;63.808;20.336;2023-03-26T15:50:55;-2.40;82.30
12384;DHT22;6256;63.808;20.336;2023-03-26T15:53:32;-2.50;83.40
12384;DHT22;6256;63.808;20.336;2023-03-26T15:58:51;-2.50;84.40
12384;DHT22;6256;63.808;20.336;2023-03-26T16:07:24;-2.60;84.30
12384;DHT22;6256;63.808;20.336;2023-03-26T16:12:54;-2.70;83.50
12384;DHT22;6256;63.808;20.336;2023-03-26T16:15:27;-2.80;84.60
12384;DHT22;6256;63.808;20.336;2023-03-26T16:20:49;-2.90;85.10
12384;DHT22;6256;63.808;20.336;2023-03-26T16:28:35;-3.00;86.20
12384;DHT22;6256;63.808;20.336;2023-03-26T16:36:41;-3.30;88.50
12384;DHT22;6256;63.808;20.336;2023-03-26T16:47:06;-3.60;89.00
12384;DHT22;6256;63.808;20.336;2023-03-26T16:52:48;-3.80;89.50
12384;DHT22;6256;63.808;20.336;2023-03-26T17:03:30;-4.20;90.40
12384;DHT22;6256;63.808;20.336;2023-03-26T17:06:04;-4.30;90.80
12384;DHT22;6256;63.808;20.336;2023-03-26T17:11:42;-4.50;91.30
12384;DHT22;6256;63.808;20.336;2023-03-26T17:19:38;-4.90;91.10
12384;DHT22;6256;63.808;20.336;2023-03-26T17:22:33;-4.90;91.10
12384;DHT22;6256;63.808;20.336;2023-03-26T17:25:19;-5.00;91.20
12384;DHT22;6256;63.808;20.336;2023-03-26T17:30:46;-5.20;91.20
12384;DHT22;6256;63.808;20.336;2023-03-26T17:33:30;-5.30;91.40
12384;DHT22;6256;63.808;20.336;2023-03-26T17:36:21;-5.40;91.20
12384;DHT22;6256;63.808;20.336;2023-03-26T17:41:53;-5.60;91.50
12384;DHT22;6256;63.808;20.336;2023-03-26T17:44:39;-5.60;91.60
12384;DHT22;6256;63.808;20.336;2023-03-26T17:47:15;-5.70;91.90
12384;DHT22;6256;63.808;20.336;2023-03-26T17:49:43;-5.80;92.20
12384;DHT22;6256;63.808;20.336;2023-03-26T17:52:24;-5.90;92.20
12384;DHT22;6256;63.808;20.336;2023-03-26T17:54:52;-5.90;92.30
12384;DHT22;6256;63.808;20.336;2023-03-26T17:57:44;-6.00;92.40
12384;DHT22;6256;63.808;20.336;2023-03-26T18:00:18;-6.10;92.40
12384;DHT22;6256;63.808;20.336;2023-03-26T18:02:57;-6.10;92.60
12384;DHT22;6256;63.808;20.336;2023-03-26T18:05:27;-6.20;92.60
12384;DHT22;6256;63.808;20.336;2023-03-26T18:11:18;-6.30;93.00
12384;DHT22;6256;63.808;20.336;2023-03-26T18:16:40;-6.30;93.10
12384;DHT22;6256;63.808;20.336;2023-03-26T18:19:15;-6.40;93.30
12384;DHT22;6256;63.808;20.336;2023-03-26T18:21:46;-6.40;93.60
12384;DHT22;6256;63.808;20.336;2023-03-26T18:26:57;-6.60;93.70
12384;DHT22;6256;63.808;20.336;2023-03-26T18:29:26;-6.60;94.10
12384;DHT22;6256;63.808;20.336;2023-03-26T18:31:54;-6.70;94.20
12384;DHT22;6256;63.808;20.336;2023-03-26T18:34:23;-6.70;94.10
12384;DHT22;6256;63.808;20.336;2023-03-26T18:39:27;-6.90;94.30
12384;DHT22;6256;63.808;20.336;2023-03-26T18:41:52;-6.90;94.60
12384;DHT22;6256;63.808;20.336;2023-03-26T18:44:19;-7.00;94.60
12384;DHT22;6256;63.808;20.336;2023-03-26T18:46:45;-7.10;95.00
12384;DHT22;6256;63.808;20.336;2023-03-26T18:49:15;-7.10;95.00
12384;DHT22;6256;63.808;20.336;2023-03-26T18:51:43;-7.10;95.30
12384;DHT22;6256;63.808;20.336;2023-03-26T18:54:14;-7.10;95.30
12384;DHT22;6256;63.808;20.336;2023-03-26T18:56:42;-7.20;95.60
12384;DHT22;6256;63.808;20.336;2023-03-26T18:59:31;-7.20;95.50
12384;DHT22;6256;63.808;20.336;2023-03-26T19:02:02;-7.30;95.40
12384;DHT22;6256;63.808;20.336;2023-03-26T19:04:30;-7.40;95.70
12384;DHT22;6256;63.808;20.336;2023-03-26T19:06:58;-7.40;95.60
12384;DHT22;6256;63.808;20.336;2023-03-26T19:09:25;-7.40;95.70
12384;DHT22;6256;63.808;20.336;2023-03-26T19:11:56;-7.50;95.70
12384;DHT22;6256;63.808;20.336;2023-03-26T19:14:23;-7.50;95.70
12384;DHT22;6256;63.808;20.336;2023-03-26T19:16:57;-7.60;96.20
12384;DHT22;6256;63.808;20.336;2023-03-26T19:19:34;-7.60;96.20
12384;DHT22;6256;63.808;20.336;2023-03-26T19:22:04;-7.70;96.00
12384;DHT22;6256;63.808;20.336;2023-03-26T19:24:31;-7.70;96.20
12384;DHT22;6256;63.808;20.336;2023-03-26T19:26:58;-7.80;96.30
12384;DHT22;6256;63.808;20.336;2023-03-26T19:29:27;-7.80;96.40
12384;DHT22;6256;63.808;20.336;2023-03-26T19:32:02;-7.80;96.80
12384;DHT22;6256;63.808;20.336;2023-03-26T19:34:39;-7.90;96.60
12384;DHT22;6256;63.808;20.336;2023-03-26T19:37:20;-7.90;96.90
12384;DHT22;6256;63.808;20.336;2023-03-26T19:39:50;-8.00;97.00
12384;DHT22;6256;63.808;20.336;2023-03-26T19:42:25;-8.00;96.90
12384;DHT22;6256;63.808;20.336;2023-03-26T19:44:52;-8.10;97.00
12384;DHT22;6256;63.808;20.336;2023-03-26T19:47:24;-8.10;97.10
12384;DHT22;6256;63.808;20.336;2023-03-26T19:49:54;-8.10;96.90
12384;DHT22;6256;63.808;20.336;2023-03-26T19:52:27;-8.20;97.00
12384;DHT22;6256;63.808;20.336;2023-03-26T19:54:59;-8.20;97.30
12384;DHT22;6256;63.808;20.336;2023-03-26T19:57:29;-8.20;97.20
12384;DHT22;6256;63.808;20.336;2023-03-26T19:59:55;-8.20;97.40
12384;DHT22;6256;63.808;20.336;2023-03-26T20:02:21;-8.30;97.30
12384;DHT22;6256;63.808;20.336;2023-03-26T20:04:47;-8.30;97.30
12384;DHT22;6256;63.808;20.336;2023-03-26T20:07:18;-8.40;97.30
12384;DHT22;6256;63.808;20.336;2023-03-26T20:09:44;-8.40;97.30
12384;DHT22;6256;63.808;20.336;2023-03-26T20:12:12;-8.50;97.40
12384;DHT22;6256;63.808;20.336;2023-03-26T20:14:40;-8.50;97.40
12384;DHT22;6256;63.808;20.336;2023-03-26T20:17:15;-8.50;97.40
12384;DHT22;6256;63.808;20.336;2023-03-26T20:19:43;-8.50;97.40
12384;DHT22;6256;63.808;20.336;2023-03-26T20:22:14;-8.60;97.80
12384;DHT22;6256;63.808;20.336;2023-03-26T20:24:42;-8.60;97.80
12384;DHT22;6256;63.808;20.336;2023-03-26T20:27:09;-8.60;97.60
12384;DHT22;6256;63.808;20.336;2023-03-26T20:29:36;-8.60;97.40
12384;DHT22;6256;63.808;20.336;2023-03-26T20:32:02;-8.70;97.70
12384;DHT22;6256;63.808;20.336;2023-03-26T20:34:31;-8.70;97.70
12384;DHT22;6256;63.808;20.336;2023-03-26T20:36:57;-8.70;97.70
12384;DHT22;6256;63.808;20.336;2023-03-26T20:39:23;-8.70;97.70
12384;DHT22;6256;63.808;20.336;2023-03-26T20:41:50;-8.70;97.60
12384;DHT22;6256;63.808;20.336;2023-03-26T20:44:19;-8.70;97.70
12384;DHT22;6256;63.808;20.336;2023-03-26T20:46:46;-8.70;97.90
12384;DHT22;6256;63.808;20.336;2023-03-26T20:49:13;-8.70;97.90
12384;DHT22;6256;63.808;20.336;2023-03-26T20:51:40;-8.80;98.00
12384;DHT22;6256;63.808;20.336;2023-03-26T20:54:22;-8.80;98.00
12384;DHT22;6256;63.808;20.336;2023-03-26T20:56:48;-8.90;97.80
12384;DHT22;6256;63.808;20.336;2023-03-26T20:59:20;-8.90;97.90
12384;DHT22;6256;63.808;20.336;2023-03-26T21:01:47;-8.90;97.70
12384;DHT22;6256;63.808;20.336;2023-03-26T21:04:14;-8.90;98.00
12384;DHT22;6256;63.808;20.336;2023-03-26T21:06:41;-8.90;98.00
12384;DHT22;6256;63.808;20.336;2023-03-26T21:09:13;-9.00;97.90
12384;DHT22;6256;63.808;20.336;2023-03-26T21:14:34;-9.10;98.00
12384;DHT22;6256;63.808;20.336;2023-03-26T21:17:05;-9.10;98.20
12384;DHT22;6256;63.808;20.336;2023-03-26T21:19:32;-9.10;98.20
12384;DHT22;6256;63.808;20.336;2023-03-26T21:24:58;-9.10;98.10
12384;DHT22;6256;63.808;20.336;2023-03-26T21:29:54;-9.20;98.40
12384;DHT22;6256;63.808;20.336;2023-03-26T21:32:21;-9.30;98.40